Time;durP1;ratioP1;P1;durP2;ratioP2;P2;SDS_P1;SDS_P2;PMS_P1;PMS_P2;Temp;Humidity;BMP_temperature;BMP_pressure;BME280_temperature;BME280_humidity;BME280_pressure;Samples;Min_cycle;Max_cycle;Signal;HPM_P1;HPM_P2
2021/11/24 00:01:21;;;;;;;26.00;10.05;;;;;;;;;;5057836;28;20111;-56
2021/11/24 00:03:47;;;;;;;20.88;8.73;;;;;;;;;;5052026;28;20461;-56
2021/11/24 00:06:13;;;;;;;19.25;8.20;;;;;;;;;;5054979;28;20033;-56
2021/11/24 00:08:39;;;;;;;20.67;8.35;;;;;;;;;;5052267;28;20019;-56
2021/11/24 00:11:05;;;;;;;19.70;8.80;;;;;;;;;;5048108;28;20419;-58
2021/11/24 00:13:31;;;;;;;22.45;8.90;;;;;;;;;;5053898;28;20029;-57
2021/11/24 00:15:57;;;;;;;22.70;8.40;;;;;;;;;;5053968;28;20033;-56
2021/11/24 00:18:23;;;;;;;22.02;9.45;;;;;;;;;;5051532;28;20032;-57
2021/11/24 00:20:49;;;;;;;19.85;8.70;;;;;;;;;;5054672;28;20115;-57
2021/11/24 00:23:15;;;;;;;22.10;8.93;;;;;;;;;;5053386;28;20108;-57
2021/11/24 00:25:41;;;;;;;24.23;9.63;;;;;;;;;;5048066;28;20029;-57
2021/11/24 00:28:07;;;;;;;20.00;9.20;;;;;;;;;;5039008;28;20037;-55
2021/11/24 00:30:33;;;;;;;23.30;8.90;;;;;;;;;;5051104;28;20037;-56
2021/11/24 00:33:00;;;;;;;21.05;8.63;;;;;;;;;;5053576;28;20112;-57
2021/11/24 00:35:26;;;;;;;21.83;9.68;;;;;;;;;;5048535;28;20026;-57
2021/11/24 00:37:53;;;;;;;21.10;8.85;;;;;;;;;;5042920;28;20053;-57
2021/11/24 00:40:19;;;;;;;23.75;9.07;;;;;;;;;;5051271;28;20033;-55
2021/11/24 00:42:45;;;;;;;23.52;9.32;;;;;;;;;;5049577;28;20032;-53
2021/11/24 00:45:11;;;;;;;21.23;8.82;;;;;;;;;;5049137;28;20108;-56
2021/11/24 00:47:37;;;;;;;17.60;8.38;;;;;;;;;;5046246;28;20455;-58
2021/11/24 00:50:06;;;;;;;19.63;8.75;;;;;;;;;;5047482;28;20029;-52
2021/11/24 00:52:32;;;;;;;18.45;8.55;;;;;;;;;;5050492;28;20032;-54
2021/11/24 00:54:58;;;;;;;26.42;10.73;;;;;;;;;;5053090;28;20120;-57
2021/11/24 00:57:24;;;;;;;18.38;8.73;;;;;;;;;;5047980;28;20212;-57
2021/11/24 00:59:50;;;;;;;20.13;8.82;;;;;;;;;;5044668;28;20032;-57
2021/11/24 01:02:16;;;;;;;23.85;10.05;;;;;;;;;;5048036;28;20119;-52
2021/11/24 01:04:42;;;;;;;19.80;8.48;;;;;;;;;;5053540;28;20445;-57
2021/11/24 01:07:08;;;;;;;21.52;10.07;;;;;;;;;;5048721;28;20493;-58
2021/11/24 01:09:34;;;;;;;22.00;9.32;;;;;;;;;;5051874;28;20037;-55
2021/11/24 01:12:01;;;;;;;20.50;9.35;;;;;;;;;;5052733;28;20025;-56
2021/11/24 01:14:27;;;;;;;24.73;10.25;;;;;;;;;;5051461;28;20108;-55
2021/11/24 01:16:53;;;;;;;23.67;9.10;;;;;;;;;;5052146;28;20069;-53
2021/11/24 01:19:19;;;;;;;21.42;8.95;;;;;;;;;;5049301;28;20053;-54
2021/11/24 01:21:46;;;;;;;24.42;9.75;;;;;;;;;;5053107;28;20033;-56
2021/11/24 01:24:12;;;;;;;24.77;9.75;;;;;;;;;;5048204;28;20033;-57
2021/11/24 01:26:38;;;;;;;23.40;9.23;;;;;;;;;;5051000;28;20477;-56
2021/11/24 01:29:04;;;;;;;18.83;8.68;;;;;;;;;;5047929;28;20040;-56
2021/11/24 01:31:30;;;;;;;24.20;9.27;;;;;;;;;;5047468;28;20033;-56
2021/11/24 01:33:56;;;;;;;19.65;7.72;;;;;;;;;;5047507;28;20055;-57
2021/11/24 01:36:22;;;;;;;21.42;8.55;;;;;;;;;;5047258;28;20485;-56
2021/11/24 01:38:48;;;;;;;20.02;8.23;;;;;;;;;;5051771;28;20029;-57
2021/11/24 01:41:15;;;;;;;18.50;7.72;;;;;;;;;;5052481;28;20723;-57
2021/11/24 01:43:41;;;;;;;19.13;8.07;;;;;;;;;;5051789;28;20548;-54
2021/11/24 01:46:07;;;;;;;18.70;7.95;;;;;;;;;;5046725;28;20064;-57
2021/11/24 01:48:33;;;;;;;20.38;8.15;;;;;;;;;;5045570;28;20115;-56
2021/11/24 01:50:59;;;;;;;25.02;9.15;;;;;;;;;;5048144;28;20021;-56
2021/11/24 01:53:29;;;;;;;20.23;8.75;;;;;;;;;;5049175;28;20028;-55
2021/11/24 01:55:56;;;;;;;20.13;8.45;;;;;;;;;;5044906;28;20034;-56
2021/11/24 01:58:23;;;;;;;18.90;8.85;;;;;;;;;;5047079;28;20024;-57
2021/11/24 02:00:49;;;;;;;20.35;7.95;;;;;;;;;;5048920;28;20523;-58
2021/11/24 02:03:15;;;;;;;17.88;7.60;;;;;;;;;;5050853;28;20056;-56
2021/11/24 02:05:41;;;;;;;17.95;8.50;;;;;;;;;;5049935;28;20040;-54
2021/11/24 02:08:07;;;;;;;14.57;6.88;;;;;;;;;;5047181;28;20029;-57
2021/11/24 02:10:33;;;;;;;16.63;6.97;;;;;;;;;;5045431;28;20076;-57
2021/11/24 02:12:59;;;;;;;20.55;7.18;;;;;;;;;;5048321;28;20060;-56
2021/11/24 02:15:25;;;;;;;15.32;6.57;;;;;;;;;;5051509;28;20096;-56
2021/11/24 02:17:51;;;;;;;17.67;7.53;;;;;;;;;;5056088;28;20024;-58
2021/11/24 02:20:41;;;;;;;15.57;7.22;;;;;;;;;;5043275;28;20136;-55
2021/11/24 02:23:08;;;;;;;14.60;7.22;;;;;;;;;;5048848;28;20420;-56
2021/11/24 02:25:34;;;;;;;19.23;6.85;;;;;;;;;;5045969;28;20039;-56
2021/11/24 02:28:00;;;;;;;12.93;5.78;;;;;;;;;;5034723;28;20474;-56
2021/11/24 02:30:26;;;;;;;18.63;7.75;;;;;;;;;;5039622;28;20074;-54
2021/11/24 02:32:52;;;;;;;16.85;7.20;;;;;;;;;;5044172;28;20503;-56
2021/11/24 02:35:18;;;;;;;16.33;7.18;;;;;;;;;;5048835;28;20393;-57
2021/11/24 02:37:44;;;;;;;16.33;7.07;;;;;;;;;;5048320;28;20040;-54
2021/11/24 02:40:10;;;;;;;14.00;6.97;;;;;;;;;;5046785;28;20025;-56
2021/11/24 02:42:40;;;;;;;17.55;7.15;;;;;;;;;;5050973;28;20373;-58
2021/11/24 02:45:06;;;;;;;17.63;7.40;;;;;;;;;;5048920;28;20105;-55
2021/11/24 02:47:32;;;;;;;14.77;6.88;;;;;;;;;;5049095;28;20029;-57
2021/11/24 02:50:03;;;;;;;15.45;6.50;;;;;;;;;;5046110;28;20048;-56
2021/11/24 02:52:30;;;;;;;13.48;6.03;;;;;;;;;;5041361;28;20544;-53
2021/11/24 02:54:57;;;;;;;14.80;7.03;;;;;;;;;;5050279;28;20078;-56
2021/11/24 02:57:33;;;;;;;17.42;6.78;;;;;;;;;;5046206;28;20059;-56
2021/11/24 03:00:00;;;;;;;16.67;7.15;;;;;;;;;;5047581;28;20083;-56
2021/11/24 03:02:26;;;;;;;17.55;7.78;;;;;;;;;;5050433;28;20104;-57
2021/11/24 03:04:53;;;;;;;16.65;7.20;;;;;;;;;;5049430;28;20039;-57
2021/11/24 03:07:19;;;;;;;18.33;6.53;;;;;;;;;;5048941;28;20090;-57
2021/11/24 03:09:45;;;;;;;16.27;7.18;;;;;;;;;;5051379;28;20443;-56
2021/11/24 03:12:12;;;;;;;16.67;6.43;;;;;;;;;;5054181;28;20060;-55
2021/11/24 03:14:38;;;;;;;20.70;6.93;;;;;;;;;;5054846;28;20025;-57
2021/11/24 03:17:04;;;;;;;16.40;6.30;;;;;;;;;;5048543;28;20107;-55
2021/11/24 03:19:30;;;;;;;14.15;6.72;;;;;;;;;;5050602;28;20051;-59
2021/11/24 03:21:56;;;;;;;17.17;7.55;;;;;;;;;;5049139;28;20029;-58
2021/11/24 03:24:22;;;;;;;13.68;6.90;;;;;;;;;;5055599;28;20021;-59
2021/11/24 03:26:48;;;;;;;18.30;6.88;;;;;;;;;;5045178;28;20115;-58
2021/11/24 03:29:14;;;;;;;17.38;7.45;;;;;;;;;;5052032;28;20061;-56
2021/11/24 03:31:40;;;;;;;16.13;7.63;;;;;;;;;;5049650;28;20025;-58
2021/11/24 03:34:06;;;;;;;15.32;6.97;;;;;;;;;;5053256;28;20112;-58
2021/11/24 03:36:33;;;;;;;18.58;7.50;;;;;;;;;;5049536;28;20037;-58
2021/11/24 03:38:59;;;;;;;15.63;8.00;;;;;;;;;;5055080;28;20037;-57
2021/11/24 03:41:25;;;;;;;16.02;7.28;;;;;;;;;;5047871;28;20025;-58
2021/11/24 03:43:51;;;;;;;16.73;7.38;;;;;;;;;;5054983;28;20369;-58
2021/11/24 03:46:17;;;;;;;18.98;8.18;;;;;;;;;;5051790;28;20047;-58
2021/11/24 03:48:43;;;;;;;17.98;7.72;;;;;;;;;;5044867;28;20025;-57
2021/11/24 03:51:09;;;;;;;15.90;7.30;;;;;;;;;;5044616;28;20029;-58
2021/11/24 03:53:40;;;;;;;18.65;6.95;;;;;;;;;;5044164;28;20484;-56
2021/11/24 03:56:06;;;;;;;20.73;6.70;;;;;;;;;;5044457;28;20090;-57
2021/11/24 03:58:32;;;;;;;14.65;6.80;;;;;;;;;;5040581;28;20544;-56
2021/11/24 04:00:58;;;;;;;17.83;7.35;;;;;;;;;;5050705;28;20362;-56
2021/11/24 04:03:24;;;;;;;15.77;7.32;;;;;;;;;;5049845;28;20037;-58
2021/11/24 04:05:52;;;;;;;16.08;6.97;;;;;;;;;;5051000;28;20116;-57
2021/11/24 04:08:19;;;;;;;17.27;6.53;;;;;;;;;;5046927;28;20469;-58
2021/11/24 04:10:45;;;;;;;17.20;7.55;;;;;;;;;;5053795;28;20036;-58
2021/11/24 04:13:11;;;;;;;15.50;7.20;;;;;;;;;;5050197;28;20405;-58
2021/11/24 04:15:37;;;;;;;17.80;7.32;;;;;;;;;;5050579;28;20029;-58
2021/11/24 04:18:03;;;;;;;15.82;6.97;;;;;;;;;;5053956;28;20411;-58
2021/11/24 04:20:30;;;;;;;18.58;6.70;;;;;;;;;;5048588;28;20048;-59
2021/11/24 04:22:56;;;;;;;18.55;7.68;;;;;;;;;;5051142;28;20025;-58
2021/11/24 04:25:22;;;;;;;16.58;7.32;;;;;;;;;;5050049;28;20634;-58
2021/11/24 04:27:49;;;;;;;17.40;7.35;;;;;;;;;;5042035;28;20029;-58
2021/11/24 04:30:15;;;;;;;17.63;7.45;;;;;;;;;;5051786;28;20086;-56
2021/11/24 04:32:41;;;;;;;21.70;7.45;;;;;;;;;;5054001;28;20052;-58
2021/11/24 04:35:08;;;;;;;16.27;7.20;;;;;;;;;;5045921;28;20029;-58
2021/11/24 04:37:34;;;;;;;18.15;7.07;;;;;;;;;;5049955;28;20466;-57
2021/11/24 04:40:00;;;;;;;17.38;7.35;;;;;;;;;;5047983;28;20029;-56
2021/11/24 04:42:26;;;;;;;16.13;6.60;;;;;;;;;;5053320;28;20033;-56
2021/11/24 04:44:52;;;;;;;20.30;7.60;;;;;;;;;;5052859;28;20029;-57
2021/11/24 04:47:18;;;;;;;20.88;7.93;;;;;;;;;;5046416;28;20461;-57
2021/11/24 04:49:44;;;;;;;15.90;7.30;;;;;;;;;;5053310;28;20082;-58
2021/11/24 04:52:11;;;;;;;16.38;6.38;;;;;;;;;;5049150;28;20044;-58
2021/11/24 04:54:37;;;;;;;13.00;5.93;;;;;;;;;;5054142;28;20025;-57
2021/11/24 04:57:03;;;;;;;14.70;7.45;;;;;;;;;;5049018;28;20037;-57
2021/11/24 04:59:29;;;;;;;18.00;7.65;;;;;;;;;;5051498;28;20112;-57
2021/11/24 05:01:55;;;;;;;16.13;6.90;;;;;;;;;;5047410;28;20115;-58
2021/11/24 05:04:22;;;;;;;12.88;6.40;;;;;;;;;;5051612;28;20082;-55
2021/11/24 05:06:48;;;;;;;15.77;7.18;;;;;;;;;;5049655;28;20388;-57
2021/11/24 05:09:14;;;;;;;12.52;6.18;;;;;;;;;;5051718;28;20052;-58
2021/11/24 05:11:40;;;;;;;16.05;6.63;;;;;;;;;;5051083;28;20033;-57
2021/11/24 05:14:09;;;;;;;14.38;6.40;;;;;;;;;;5052470;28;20036;-58
2021/11/24 05:16:36;;;;;;;13.25;5.88;;;;;;;;;;5050029;28;20036;-58
2021/11/24 05:19:06;;;;;;;15.02;6.20;;;;;;;;;;5049910;28;20037;-58
2021/11/24 05:21:34;;;;;;;14.75;6.20;;;;;;;;;;5051381;28;20033;-58
2021/11/24 05:24:01;;;;;;;15.00;6.45;;;;;;;;;;5048206;28;20033;-57
2021/11/24 05:26:27;;;;;;;13.90;6.10;;;;;;;;;;5044751;28;20096;-57
2021/11/24 05:28:53;;;;;;;11.73;5.40;;;;;;;;;;5052088;28;20108;-53
2021/11/24 05:31:20;;;;;;;11.82;5.40;;;;;;;;;;5051175;28;20104;-58
2021/11/24 05:33:47;;;;;;;13.48;6.32;;;;;;;;;;5045232;28;20034;-56
2021/11/24 05:36:13;;;;;;;15.13;6.50;;;;;;;;;;5045737;28;20031;-57
2021/11/24 05:38:39;;;;;;;17.38;7.28;;;;;;;;;;5046416;28;20477;-55
2021/11/24 05:41:06;;;;;;;11.35;5.93;;;;;;;;;;5049097;28;20051;-55
2021/11/24 05:43:32;;;;;;;13.32;6.10;;;;;;;;;;5046592;28;20519;-56
2021/11/24 05:46:11;;;;;;;19.08;7.32;;;;;;;;;;5044908;28;20044;-56
2021/11/24 05:48:37;;;;;;;14.07;5.93;;;;;;;;;;5048339;28;20082;-56
2021/11/24 05:51:03;;;;;;;15.38;6.78;;;;;;;;;;5051222;28;20025;-53
2021/11/24 05:53:29;;;;;;;14.63;6.60;;;;;;;;;;5049268;28;20032;-56
2021/11/24 05:55:55;;;;;;;14.00;6.18;;;;;;;;;;5048685;28;20380;-58
2021/11/24 05:58:23;;;;;;;13.35;6.30;;;;;;;;;;5052894;28;20035;-55
2021/11/24 06:00:48;;;;;;;12.82;6.22;;;;;;;;;;5051327;28;20601;-57
2021/11/24 06:03:14;;;;;;;13.98;6.45;;;;;;;;;;5049025;28;20029;-57
2021/11/24 06:05:40;;;;;;;13.98;6.32;;;;;;;;;;5040868;28;20534;-56
2021/11/24 06:08:07;;;;;;;19.33;7.10;;;;;;;;;;5049054;28;20036;-58
2021/11/24 06:10:33;;;;;;;14.60;6.38;;;;;;;;;;5051471;28;20032;-56
2021/11/24 06:12:59;;;;;;;15.38;6.93;;;;;;;;;;5046537;28;20120;-57
2021/11/24 06:15:25;;;;;;;14.60;6.78;;;;;;;;;;5045374;28;20074;-56
2021/11/24 06:17:51;;;;;;;18.30;7.72;;;;;;;;;;5047592;28;20021;-55
2021/11/24 06:20:18;;;;;;;13.75;6.45;;;;;;;;;;5051770;28;20037;-58
2021/11/24 06:22:45;;;;;;;15.07;7.32;;;;;;;;;;5045762;28;20511;-58
2021/11/24 06:25:11;;;;;;;15.60;7.15;;;;;;;;;;5044654;28;20111;-58
2021/11/24 06:27:38;;;;;;;18.95;7.55;;;;;;;;;;5050064;28;20082;-58
2021/11/24 06:30:04;;;;;;;18.50;7.68;;;;;;;;;;5052121;28;20029;-58
2021/11/24 06:32:30;;;;;;;14.45;6.88;;;;;;;;;;5045513;28;20039;-58
2021/11/24 06:34:56;;;;;;;16.25;7.40;;;;;;;;;;5047045;28;20412;-58
2021/11/24 06:37:22;;;;;;;18.50;7.35;;;;;;;;;;5050699;28;20027;-58
2021/11/24 06:39:48;;;;;;;16.52;7.65;;;;;;;;;;5049222;28;20029;-58
2021/11/24 06:42:14;;;;;;;17.17;8.02;;;;;;;;;;5047061;28;20044;-58
2021/11/24 06:44:40;;;;;;;14.68;6.97;;;;;;;;;;5047656;28;20032;-56
2021/11/24 06:47:06;;;;;;;16.90;7.35;;;;;;;;;;5050703;28;20052;-57
2021/11/24 06:49:32;;;;;;;15.80;7.28;;;;;;;;;;5048468;28;20473;-55
2021/11/24 06:51:58;;;;;;;16.67;7.60;;;;;;;;;;5047546;28;20029;-58
2021/11/24 06:54:24;;;;;;;14.43;7.10;;;;;;;;;;5046755;28;20086;-57
2021/11/24 06:56:50;;;;;;;12.85;7.00;;;;;;;;;;5050849;28;20025;-57
2021/11/24 06:59:16;;;;;;;15.07;7.03;;;;;;;;;;5044283;28;20033;-55
2021/11/24 07:01:43;;;;;;;18.30;7.72;;;;;;;;;;5047933;28;20511;-58
2021/11/24 07:04:09;;;;;;;19.00;7.90;;;;;;;;;;5051660;28;20082;-57
2021/11/24 07:06:35;;;;;;;21.20;9.88;;;;;;;;;;5051827;28;20693;-55
2021/11/24 07:09:03;;;;;;;18.60;8.00;;;;;;;;;;5047782;28;20021;-54
2021/11/24 07:11:30;;;;;;;17.58;7.72;;;;;;;;;;5050791;28;20017;-56
2021/11/24 07:13:56;;;;;;;16.15;7.28;;;;;;;;;;5045755;28;20029;-56
2021/11/24 07:16:22;;;;;;;19.35;7.65;;;;;;;;;;5043283;28;20029;-58
2021/11/24 07:18:48;;;;;;;19.80;7.72;;;;;;;;;;5047979;28;20056;-58
2021/11/24 07:21:14;;;;;;;19.83;7.97;;;;;;;;;;5052465;28;20037;-58
2021/11/24 07:23:40;;;;;;;21.00;8.50;;;;;;;;;;5052685;28;20497;-58
2021/11/24 07:26:06;;;;;;;19.98;8.23;;;;;;;;;;5043508;28;20059;-58
2021/11/24 07:28:32;;;;;;;18.75;7.97;;;;;;;;;;5049605;28;20029;-58
2021/11/24 07:30:58;;;;;;;19.98;7.90;;;;;;;;;;5049040;28;20021;-58
2021/11/24 07:33:24;;;;;;;18.80;8.00;;;;;;;;;;5045844;28;20068;-57
2021/11/24 07:35:50;;;;;;;20.38;8.63;;;;;;;;;;5052256;28;20357;-57
2021/11/24 07:38:16;;;;;;;17.13;7.90;;;;;;;;;;5051430;28;20025;-57
2021/11/24 07:40:42;;;;;;;17.52;8.07;;;;;;;;;;5052055;28;20099;-58
2021/11/24 07:43:08;;;;;;;17.20;7.22;;;;;;;;;;5051570;28;20090;-57
2021/11/24 07:45:35;;;;;;;16.98;7.10;;;;;;;;;;5044439;28;20013;-56
2021/11/24 07:48:01;;;;;;;27.50;11.15;;;;;;;;;;5054948;28;20048;-56
2021/11/24 07:50:27;;;;;;;18.48;8.55;;;;;;;;;;5049369;28;20116;-58
2021/11/24 07:52:55;;;;;;;16.95;7.72;;;;;;;;;;5055580;28;20047;-58
2021/11/24 07:55:21;;;;;;;16.98;7.28;;;;;;;;;;5053176;28;20027;-56
2021/11/24 07:57:47;;;;;;;18.00;7.60;;;;;;;;;;5061383;28;21329;-54
2021/11/24 08:00:13;;;;;;;16.67;7.40;;;;;;;;;;5059587;28;20896;-57
2021/11/24 08:02:40;;;;;;;14.57;7.13;;;;;;;;;;5048329;28;20099;-56
2021/11/24 08:05:06;;;;;;;17.10;7.68;;;;;;;;;;5059330;28;20029;-57
2021/11/24 08:07:33;;;;;;;18.27;7.82;;;;;;;;;;5054787;28;20032;-56
2021/11/24 08:09:59;;;;;;;18.95;7.40;;;;;;;;;;5054129;28;20055;-58
2021/11/24 08:12:25;;;;;;;13.55;5.97;;;;;;;;;;5055514;28;20037;-57
2021/11/24 08:14:54;;;;;;;13.90;6.45;;;;;;;;;;5055031;28;20032;-55
2021/11/24 08:17:20;;;;;;;17.33;7.28;;;;;;;;;;5055126;28;20481;-58
2021/11/24 08:19:47;;;;;;;17.92;7.03;;;;;;;;;;5054490;28;20113;-58
2021/11/24 08:22:13;;;;;;;17.15;7.28;;;;;;;;;;5055153;28;20331;-58
2021/11/24 08:24:39;;;;;;;13.35;6.63;;;;;;;;;;5055067;28;20036;-58
2021/11/24 08:27:05;;;;;;;15.07;6.50;;;;;;;;;;5042788;28;20069;-58
2021/11/24 08:29:31;;;;;;;23.42;7.45;;;;;;;;;;5050371;28;20025;-55
2021/11/24 08:31:57;;;;;;;16.70;8.13;;;;;;;;;;5054905;28;20100;-58
2021/11/24 08:34:23;;;;;;;18.02;7.18;;;;;;;;;;5054847;28;20056;-58
2021/11/24 08:36:51;;;;;;;15.38;6.45;;;;;;;;;;5055683;28;20033;-58
2021/11/24 08:39:17;;;;;;;17.92;7.35;;;;;;;;;;5054644;28;20108;-58
2021/11/24 08:41:44;;;;;;;18.23;7.03;;;;;;;;;;5055135;28;20036;-56
2021/11/24 08:44:10;;;;;;;16.83;7.07;;;;;;;;;;5045161;28;20152;-57
2021/11/24 08:46:36;;;;;;;14.10;5.93;;;;;;;;;;5053270;28;20025;-54
2021/11/24 08:49:02;;;;;;;14.27;7.00;;;;;;;;;;5052320;28;20042;-57
2021/11/24 08:51:29;;;;;;;14.68;6.05;;;;;;;;;;5052663;28;20032;-55
2021/11/24 08:53:55;;;;;;;13.55;6.68;;;;;;;;;;5049326;28;20108;-56
2021/11/24 08:56:21;;;;;;;18.10;6.50;;;;;;;;;;5055212;28;20031;-57
2021/11/24 08:58:47;;;;;;;14.20;6.55;;;;;;;;;;5050803;28;20088;-58
2021/11/24 09:01:13;;;;;;;13.68;5.97;;;;;;;;;;5043996;28;20112;-57
2021/11/24 09:03:39;;;;;;;10.38;5.28;;;;;;;;;;5056674;28;20104;-57
2021/11/24 09:06:06;;;;;;;16.83;7.28;;;;;;;;;;5057502;28;20110;-55
2021/11/24 09:08:32;;;;;;;15.80;6.05;;;;;;;;;;5057217;28;20048;-58
2021/11/24 09:10:58;;;;;;;14.70;6.47;;;;;;;;;;5056174;28;20112;-55
2021/11/24 09:13:24;;;;;;;14.73;6.95;;;;;;;;;;5053171;28;20033;-55
2021/11/24 09:15:50;;;;;;;14.30;6.78;;;;;;;;;;5047419;28;20028;-53
2021/11/24 09:18:16;;;;;;;15.00;6.60;;;;;;;;;;5056354;28;20032;-58
2021/11/24 09:20:43;;;;;;;14.45;7.00;;;;;;;;;;5054708;28;20029;-58
2021/11/24 09:23:10;;;;;;;13.88;6.32;;;;;;;;;;5055630;28;20104;-58
2021/11/24 09:25:48;;;;;;;17.13;6.60;;;;;;;;;;5055623;28;20070;-58
2021/11/24 09:28:15;;;;;;;14.20;6.07;;;;;;;;;;5051347;28;20041;-57
2021/11/24 09:30:41;;;;;;;16.15;6.63;;;;;;;;;;5053775;28;20087;-58
2021/11/24 09:33:08;;;;;;;15.02;6.47;;;;;;;;;;5057691;28;20136;-59
2021/11/24 09:35:34;;;;;;;16.75;5.50;;;;;;;;;;5056379;28;20437;-56
2021/11/24 09:38:01;;;;;;;18.25;6.20;;;;;;;;;;5053617;28;20059;-57
2021/11/24 09:40:27;;;;;;;14.57;6.13;;;;;;;;;;5055817;28;20044;-55
2021/11/24 09:42:56;;;;;;;14.07;6.22;;;;;;;;;;5049029;28;20065;-56
2021/11/24 09:45:22;;;;;;;13.50;5.70;;;;;;;;;;5050644;28;20421;-56
2021/11/24 09:47:48;;;;;;;12.85;6.18;;;;;;;;;;5053887;28;20029;-58
2021/11/24 09:50:17;;;;;;;19.27;5.57;;;;;;;;;;5047539;28;20021;-57
2021/11/24 09:52:47;;;;;;;12.57;5.57;;;;;;;;;;5046198;28;20512;-58
2021/11/24 09:55:13;;;;;;;17.42;6.00;;;;;;;;;;5055892;28;20112;-57
2021/11/24 09:57:39;;;;;;;15.88;5.47;;;;;;;;;;5047590;28;20496;-57
2021/11/24 10:00:06;;;;;;;13.55;6.22;;;;;;;;;;5055142;28;20108;-58
2021/11/24 10:02:32;;;;;;;14.93;5.88;;;;;;;;;;5056467;28;20107;-57
2021/11/24 10:04:58;;;;;;;14.27;6.07;;;;;;;;;;5059676;28;20112;-55
2021/11/24 10:07:24;;;;;;;13.05;5.60;;;;;;;;;;5056525;28;20053;-57
2021/11/24 10:09:50;;;;;;;14.75;5.90;;;;;;;;;;5054207;28;20568;-55
2021/11/24 10:12:17;;;;;;;12.40;5.65;;;;;;;;;;5054939;28;20028;-57
2021/11/24 10:14:43;;;;;;;12.68;5.85;;;;;;;;;;5051891;28;20113;-54
2021/11/24 10:17:11;;;;;;;11.73;4.72;;;;;;;;;;5053137;28;20021;-57
2021/11/24 10:19:37;;;;;;;14.32;5.95;;;;;;;;;;5054179;28;20034;-57
2021/11/24 10:22:05;;;;;;;10.68;5.18;;;;;;;;;;5055036;28;20070;-57
2021/11/24 10:24:39;;;;;;;18.40;5.75;;;;;;;;;;5052723;28;20072;-56
2021/11/24 10:27:10;;;;;;;10.82;5.05;;;;;;;;;;5054838;28;20036;-58
2021/11/24 10:29:37;;;;;;;9.95;4.82;;;;;;;;;;5049866;28;20112;-59
2021/11/24 10:32:05;;;;;;;12.80;5.20;;;;;;;;;;5055398;28;20020;-59
2021/11/24 10:34:32;;;;;;;9.30;4.38;;;;;;;;;;5048758;28;20077;-59
2021/11/24 10:37:10;;;;;;;9.77;4.43;;;;;;;;;;5054382;28;20020;-58
2021/11/24 10:39:37;;;;;;;8.15;3.90;;;;;;;;;;5047284;28;20029;-59
2021/11/24 10:42:14;;;;;;;12.88;4.55;;;;;;;;;;5046478;28;20029;-59
2021/11/24 10:44:42;;;;;;;8.68;4.15;;;;;;;;;;5049735;28;20033;-59
2021/11/24 10:47:09;;;;;;;6.97;3.75;;;;;;;;;;5053305;28;20021;-58
2021/11/24 10:49:41;;;;;;;8.30;3.95;;;;;;;;;;5053092;28;20032;-59
2021/11/24 10:52:26;;;;;;;5.53;3.17;;;;;;;;;;5042960;28;20126;-58
2021/11/24 10:54:56;;;;;;;8.77;4.20;;;;;;;;;;5051392;28;20020;-59
2021/11/24 10:57:22;;;;;;;5.65;3.10;;;;;;;;;;5054352;28;20373;-59
2021/11/24 10:59:48;;;;;;;7.80;2.58;;;;;;;;;;5052110;28;20032;-58
2021/11/24 11:02:16;;;;;;;8.23;3.13;;;;;;;;;;5053799;28;20124;-59
2021/11/24 11:04:53;;;;;;;6.22;2.70;;;;;;;;;;5052483;28;20028;-58
2021/11/24 11:07:19;;;;;;;6.57;2.72;;;;;;;;;;5054756;28;20078;-59
2021/11/24 11:09:45;;;;;;;6.93;3.13;;;;;;;;;;5056078;28;20033;-59
2021/11/24 11:12:11;;;;;;;4.97;3.08;;;;;;;;;;5054049;28;20021;-59
2021/11/24 11:14:37;;;;;;;6.97;3.58;;;;;;;;;;5052450;28;20386;-59
2021/11/24 11:17:03;;;;;;;7.97;3.13;;;;;;;;;;5048275;28;20032;-58
2021/11/24 11:19:40;;;;;;;8.00;3.15;;;;;;;;;;5052159;28;20092;-59
2021/11/24 11:22:07;;;;;;;5.05;2.53;;;;;;;;;;5052994;28;20037;-59
2021/11/24 11:24:33;;;;;;;6.97;2.72;;;;;;;;;;5049821;28;20029;-59
2021/11/24 11:26:59;;;;;;;5.20;2.47;;;;;;;;;;5051871;28;20338;-57
2021/11/24 11:29:26;;;;;;;8.38;3.30;;;;;;;;;;5050234;28;20072;-55
2021/11/24 11:31:52;;;;;;;6.45;3.25;;;;;;;;;;5055719;28;20106;-57
2021/11/24 11:34:19;;;;;;;5.82;2.92;;;;;;;;;;5048295;28;20125;-56
2021/11/24 11:36:45;;;;;;;5.68;3.00;;;;;;;;;;5055396;28;20128;-57
2021/11/24 11:39:11;;;;;;;7.15;3.03;;;;;;;;;;5045637;28;20041;-58
2021/11/24 11:41:38;;;;;;;6.10;3.15;;;;;;;;;;5046836;28;20091;-56
2021/11/24 11:44:05;;;;;;;6.53;3.08;;;;;;;;;;5045807;28;20021;-57
2021/11/24 11:46:41;;;;;;;7.10;3.08;;;;;;;;;;5053326;28;20119;-58
2021/11/24 11:49:09;;;;;;;5.10;2.60;;;;;;;;;;5059246;28;20074;-58
2021/11/24 11:51:37;;;;;;;5.45;2.92;;;;;;;;;;5053127;28;20036;-58
2021/11/24 11:54:04;;;;;;;5.60;2.53;;;;;;;;;;5052260;28;20035;-59
2021/11/24 11:56:31;;;;;;;5.50;2.75;;;;;;;;;;5056660;28;20473;-58
2021/11/24 11:59:07;;;;;;;7.47;3.55;;;;;;;;;;5052987;28;20044;-59
2021/11/24 12:01:42;;;;;;;5.43;2.88;;;;;;;;;;5049617;28;20045;-59
2021/11/24 12:04:17;;;;;;;4.93;2.78;;;;;;;;;;5056280;28;20032;-58
2021/11/24 12:06:47;;;;;;;5.55;2.53;;;;;;;;;;5055754;28;20033;-58
2021/11/24 12:09:15;;;;;;;6.07;3.00;;;;;;;;;;5054573;28;20037;-58
2021/11/24 12:12:07;;;;;;;8.88;3.83;;;;;;;;;;5055412;28;20101;-59
2021/11/24 12:14:48;;;;;;;4.93;2.88;;;;;;;;;;5048905;28;20583;-59
2021/11/24 12:17:29;;;;;;;6.57;2.53;;;;;;;;;;5044024;28;20040;-58
2021/11/24 12:19:56;;;;;;;5.47;2.90;;;;;;;;;;5057281;28;20055;-58
2021/11/24 12:22:41;;;;;;;5.72;3.00;;;;;;;;;;5053322;28;20048;-57
2021/11/24 12:25:07;;;;;;;4.47;2.70;;;;;;;;;;5052086;28;20032;-57
2021/11/24 12:27:58;;;;;;;6.05;3.25;;;;;;;;;;5054619;28;20120;-59
2021/11/24 12:30:36;;;;;;;6.00;2.80;;;;;;;;;;5052791;28;20505;-57
2021/11/24 12:33:03;;;;;;;5.50;3.15;;;;;;;;;;5053268;28;20704;-58
2021/11/24 12:35:30;;;;;;;8.98;3.45;;;;;;;;;;5054987;28;20048;-58
2021/11/24 12:37:56;;;;;;;7.20;3.13;;;;;;;;;;5057256;28;20041;-58
2021/11/24 12:40:26;;;;;;;5.85;2.83;;;;;;;;;;5048205;28;20388;-57
2021/11/24 12:43:02;;;;;;;7.47;3.35;;;;;;;;;;5051027;28;20020;-56
2021/11/24 12:45:28;;;;;;;9.63;3.95;;;;;;;;;;5051038;28;20036;-57
2021/11/24 12:47:58;;;;;;;8.00;3.95;;;;;;;;;;5044962;28;20044;-58
2021/11/24 12:50:25;;;;;;;6.93;3.67;;;;;;;;;;5053358;28;20245;-58
2021/11/24 12:52:58;;;;;;;6.82;3.30;;;;;;;;;;5054153;28;20108;-58
2021/11/24 12:55:24;;;;;;;;;;;;;;;;;;5049769;28;20419;-58
2021/11/24 12:57:50;;;;;;;7.18;3.50;;;;;;;;;;5054372;28;19908;-56
2021/11/24 13:00:24;;;;;;;8.05;3.60;;;;;;;;;;5051305;28;20033;-57
2021/11/24 13:02:50;;;;;;;7.22;3.72;;;;;;;;;;5048138;28;20024;-53
2021/11/24 13:05:17;;;;;;;7.93;3.95;;;;;;;;;;5050952;28;20029;-57
2021/11/24 13:07:49;;;;;;;8.10;3.80;;;;;;;;;;5056288;28;20463;-57
2021/11/24 13:10:16;;;;;;;11.10;4.30;;;;;;;;;;5052793;28;20017;-57
2021/11/24 13:12:42;;;;;;;9.45;4.25;;;;;;;;;;5054659;28;20580;-56
2021/11/24 13:15:09;;;;;;;10.52;4.28;;;;;;;;;;5048446;28;20032;-58
2021/11/24 13:17:39;;;;;;;9.52;4.45;;;;;;;;;;5044884;28;20037;-57
2021/11/24 13:20:10;;;;;;;11.05;4.45;;;;;;;;;;5052524;28;20211;-54
2021/11/24 13:22:43;;;;;;;7.13;4.03;;;;;;;;;;5055770;28;20025;-56
2021/11/24 13:25:09;;;;;;;;;;;;;;;;;;5052853;28;20044;-54
2021/11/24 13:27:40;;;;;;;9.68;4.57;;;;;;;;;;5055264;28;19916;-57
2021/11/24 13:30:06;;;;;;;11.38;4.53;;;;;;;;;;5051957;28;20116;-57
2021/11/24 13:32:32;;;;;;;9.60;4.28;;;;;;;;;;5055666;28;20376;-58
2021/11/24 13:34:58;;;;;;;9.35;4.53;;;;;;;;;;5050055;28;20478;-58
2021/11/24 13:37:29;;;;;;;9.05;3.92;;;;;;;;;;5056649;28;20169;-59
2021/11/24 13:39:56;;;;;;;9.88;3.97;;;;;;;;;;5054419;28;20029;-58
2021/11/24 13:42:22;;;;;;;11.93;5.32;;;;;;;;;;5051082;28;20031;-57
2021/11/24 13:44:53;;;;;;;11.95;5.35;;;;;;;;;;5051327;28;20033;-58
2021/11/24 13:47:29;;;;;;;9.63;3.65;;;;;;;;;;5056098;28;20123;-58
2021/11/24 13:49:57;;;;;;;9.95;4.18;;;;;;;;;;5047137;28;20052;-58
2021/11/24 13:52:23;;;;;;;8.15;3.75;;;;;;;;;;5044899;28;20034;-58
2021/11/24 13:54:52;;;;;;;9.77;4.22;;;;;;;;;;5053162;28;20025;-53
2021/11/24 13:57:19;;;;;;;10.38;4.63;;;;;;;;;;5052143;28;20041;-57
2021/11/24 13:59:45;;;;;;;10.88;3.90;;;;;;;;;;5056112;28;20044;-57
2021/11/24 14:02:16;;;;;;;9.05;4.55;;;;;;;;;;5052910;28;20025;-56
2021/11/24 14:04:44;;;;;;;7.78;3.92;;;;;;;;;;5058132;28;20876;-58
2021/11/24 14:07:12;;;;;;;10.55;4.75;;;;;;;;;;5055305;28;20037;-58
2021/11/24 14:09:41;;;;;;;10.70;4.60;;;;;;;;;;5056269;28;20112;-58
2021/11/24 14:12:10;;;;;;;10.98;4.47;;;;;;;;;;5049991;28;20103;-58
2021/11/24 14:14:42;;;;;;;9.50;3.90;;;;;;;;;;5052424;28;20351;-58
2021/11/24 14:17:08;;;;;;;10.65;4.63;;;;;;;;;;5053326;28;20126;-57
2021/11/24 14:19:35;;;;;;;8.80;4.55;;;;;;;;;;5053428;28;20021;-57
2021/11/24 14:22:02;;;;;;;8.63;4.25;;;;;;;;;;5048458;28;20060;-55
2021/11/24 14:24:28;;;;;;;11.23;4.70;;;;;;;;;;5052878;28;20064;-56
2021/11/24 14:26:55;;;;;;;10.25;4.25;;;;;;;;;;5050524;28;20057;-54
2021/11/24 14:29:23;;;;;;;9.15;4.03;;;;;;;;;;5045387;28;20474;-57
2021/11/24 14:32:07;;;;;;;11.02;5.00;;;;;;;;;;5045667;28;20110;-53
2021/11/24 14:34:33;;;;;;;9.00;4.47;;;;;;;;;;5050256;28;20523;-53